Budapest, Hungary

9:07 AM CEST on September 05, 2015 (GMT +0200)
ICSILLAG2 | | Change Station
CLOSE
Current Station
Personal Weather Station
Location: Budapest III. - Csillaghegy, Budapest
Elevation: 358 ft
Nearby Weather Stations

Elev 358 ft 47.59 °N, 19.04 °E | Updated 9 seconds ago

Light Rain
Light Rain
58.8 °F
Feels Like 58.8 °F
N
1.2
Wind Variable Wind from NNW
Gusts 0.0 mph

Today
High -- | Low -- °F
--% Chance of Precip.
Yesterday
High -- | Low -- °F
Precip. -- in
6:07 AM 7:17 PM
Waning Gibbous, 51% visible
Pressure 29.92 in
Visibility 5.0 miles
Clouds Few 600 ft
Scattered Clouds 1200 ft
Mostly Cloudy 3600 ft
Dew Point 56 °F
Humidity 90%
Rainfall 0.25 in
Snow Depth Not available.
UV 1 out of 12
Pollen Not available.
Air Quality Not available.
Flu Activity Not available.
METAR LHBP 050700Z 36005KT 320V030 8000 -RA FEW006 SCT012 BKN036 15/15 Q1013 NOSIG
Pressure 29.92 in
Visibility 5.0 miles
Clouds Few 600 ft
Scattered Clouds 1200 ft
Mostly Cloudy 3600 ft
Dew Point 56 °F
Humidity 90%
Rainfall 0.25 in
Snow Depth Not available.
UV 1 out of 12
Pollen Not available.
Air Quality Not available.
Flu Activity Not available.
METAR LHBP 050700Z 36005KT 320V030 8000 -RA FEW006 SCT012 BKN036 15/15 Q1013 NOSIG

10-Day Weather Forecast

×

Almanac

Astronomy

Sep. 05, 2015 Rise Set
Actual Time
Civil Twilight
Nautical Twilight
Astronomical Twilight
Moon
Length of Visible Light
Length of Day
Tomorrow will be .
, % of the Moon is Illuminated

Today's Extremes

Country Highs Country Lows

Community

WunderPhotos

Upload Photos

1,852,430 photos uploaded!

WunderBlogs® & News

Nearby

Air Quality

  Air Quality AQ Index Pollutant
Not available.

Snow Depth

Station Depth Elevation

Earthquake Activity

City Distance Mag. Time & Date
Minimum magnitude displayed is 2.5.

Coastal Water Temperatures

Place Temperature

Stations

Nearby Weather Stations

Station Location Temp. Windchill Dew Point Humidity Wind Precip. Elev Updated Type